MSC Maria Saveria — 3FLE8 — position and weather

sailwx.info

Track history (hours):
 
Tides and Currents Weather Stations Pressure Air Temp Water Temp Dewpoint Dewpoint Depression Visibility Wind Speed Wind Dir Waves Ship Positions

MSC Maria Saveria

Last reported at 2014-Dec-22 02:22 UTC. Time now 2014-Dec-22 02:46 UTC.
Position N 29°46' E 122°24'.

Length 366 m; draft 9.3 m.

Type: Ship (hazmat cat A). MMSI: 372400000.

Date/timePositionNaut miles runAvg speedWind from/ knotsBaromVisibWave heightAir tempDewpointWater temp
2014-Dec-22 02:22N 29°46' E 122°24'0 0.0
2014-Dec-22 01:28N 29°46' E 122°24'0 0.0
2014-Dec-22 00:28N 29°46' E 122°24'0 0.1
2014-Dec-21 21:22N 29°46' E 122°24'0 0.0
2014-Dec-21 19:16N 29°46' E 122°24'0 0.0
2014-Dec-21 18:10N 29°46' E 122°24'0 0.0
2014-Dec-21 17:22N 29°46' E 122°24'0 0.0
2014-Dec-21 11:28N 29°46' E 122°24'0 0.1
2014-Dec-21 10:28N 29°46' E 122°24'0 0.0
2014-Dec-21 05:22N 29°46' E 122°24'0 0.0
2014-Dec-21 02:22N 29°46' E 122°24'0 0.1
2014-Dec-21 01:28N 29°46' E 122°24'0 0.1
2014-Dec-20 23:22N 29°46' E 122°24'0 0.0
2014-Dec-20 21:16N 29°46' E 122°24'0 0.1
2014-Dec-20 20:10N 29°46' E 122°24'0 0.0
2014-Dec-20 17:16N 29°46' E 122°24'0 0.0
2014-Dec-20 12:04N 29°46' E 122°24'0 0.0
2014-Dec-20 06:03N 29°46' E 122°24'0 0.0
2014-Dec-20 05:16N 29°46' E 122°24'0 0.0
2014-Dec-20 03:33N 29°46' E 122°24'0 0.0
2014-Dec-20 02:10N 29°46' E 122°24'0 0.0
2014-Dec-19 18:34N 29°46' E 122°24'0 0.0
2014-Dec-19 17:28N 29°46' E 122°24'0 0.1
2014-Dec-19 16:22N 29°46' E 122°24'0 0.0
2014-Dec-19 15:10N 29°46' E 122°24'0 0.0
2014-Dec-19 11:21N 29°46' E 122°24'0 0.0
2014-Dec-19 05:22N 29°46' E 122°24'0 0.1
2014-Dec-19 04:33N 29°46' E 122°24'0 0.0
2014-Dec-18 21:27N 29°46' E 122°24'0 0.1
2014-Dec-18 19:15N 29°46' E 122°24'0 0.0
2014-Dec-18 18:21N 29°46' E 122°24'0 0.0
2014-Dec-18 14:15N 29°46' E 122°24'0 0.1
2014-Dec-18 11:33N 29°46' E 122°24'4 3.6
2014-Dec-18 10:33N 29°45' E 122°20'9 8.5
2014-Dec-18 09:33N 29°51' E 122°12'5 1.4
2014-Dec-18 06:03N 29°49' E 122°07'0 0.1
2014-Dec-18 05:09N 29°49' E 122°07'0 0.0
2014-Dec-18 01:21N 29°49' E 122°07'0 0.1
2014-Dec-18 00:33N 29°49' E 122°07'0 0.1
2014-Dec-17 21:33N 29°49' E 122°07'0 0.0
2014-Dec-17 20:21N 29°49' E 122°07'0 0.0
2014-Dec-17 18:03N 29°49' E 122°07'0 0.0
2014-Dec-17 17:27N 29°49' E 122°07'0 0.0
2014-Dec-17 16:15N 29°49' E 122°07'0 0.0
2014-Dec-17 12:03N 29°49' E 122°07'0 0.0
2014-Dec-17 06:33N 29°49' E 122°07'0 0.0
2014-Dec-17 04:15N 29°49' E 122°07'0 0.0
2014-Dec-17 02:27N 29°49' E 122°07'0 0.2
2014-Dec-17 01:18N 29°49' E 122°07'2 2.0
2014-Dec-17 00:33N 29°47' E 122°07'0 0.1
2014-Dec-16 23:33N 29°47' E 122°07'0 0.0
2014-Dec-16 22:09N 29°47' E 122°07'0 0.0
2014-Dec-16 21:33N 29°47' E 122°07'0 0.0
2014-Dec-16 20:21N 29°47' E 122°07'0 0.0
2014-Dec-16 19:33N 29°47' E 122°07'0 0.0
2014-Dec-16 18:33N 29°47' E 122°07'0 0.0
2014-Dec-16 17:27N 29°47' E 122°07'0 0.0
2014-Dec-16 15:21N 29°47' E 122°07'0 0.0
2014-Dec-16 14:03N 29°47' E 122°07'0 0.0
2014-Dec-16 13:21N 29°47' E 122°07'0 0.0
2014-Dec-16 10:09N 29°47' E 122°07'0 0.0
2014-Dec-16 09:33N 29°47' E 122°07'0 0.0
2014-Dec-16 08:33N 29°47' E 122°07'0 0.0
2014-Dec-16 07:33N 29°47' E 122°07'0 0.0
2014-Dec-16 06:27N 29°47' E 122°07'0 0.0
2014-Dec-16 01:03N 29°47' E 122°07'0 0.0
2014-Dec-15 23:09N 29°47' E 122°07'0 0.0
2014-Dec-15 22:03N 29°47' E 122°07'0 0.0
2014-Dec-15 20:33N 29°47' E 122°07'0 0.0
2014-Dec-15 19:09N 29°47' E 122°07'0 0.0
2014-Dec-15 18:15N 29°47' E 122°07'0 0.0
2014-Dec-15 16:33N 29°47' E 122°07'0 0.0
2014-Dec-15 15:09N 29°47' E 122°07'0 0.0
2014-Dec-15 12:15N 29°47' E 122°07'0 0.0
2014-Dec-15 09:09N 29°47' E 122°07'0 0.0
2014-Dec-15 08:09N 29°47' E 122°07'0 0.0
2014-Dec-15 06:03N 29°47' E 122°07'0 0.0
2014-Dec-15 05:03N 29°47' E 122°07'0 0.0
2014-Dec-15 04:33N 29°47' E 122°07'0 0.0
2014-Dec-15 02:21N 29°47' E 122°07'0 0.0
2014-Dec-15 01:33N 29°47' E 122°07'0 0.0
2014-Dec-14 23:09N 29°47' E 122°07'0 0.0
2014-Dec-14 22:15N 29°47' E 122°07'0 0.0
2014-Dec-14 21:33N 29°47' E 122°07'0 0.0
2014-Dec-14 19:27N 29°47' E 122°07'0 0.0
2014-Dec-14 18:21N 29°47' E 122°07'0 0.0
2014-Dec-14 17:15N 29°47' E 122°07'0 0.0
2014-Dec-14 16:33N 29°47' E 122°07'0 0.0
2014-Dec-14 15:33N 29°47' E 122°07'0 0.0
2014-Dec-14 13:21N 29°47' E 122°07'0 0.0
2014-Dec-14 12:27N 29°47' E 122°07'0 0.0
2014-Dec-14 11:09N 29°47' E 122°07'0 0.0
2014-Dec-14 10:21N 29°47' E 122°07'0 0.0
2014-Dec-14 09:21N 29°47' E 122°07'0 0.0
2014-Dec-14 05:33N 29°47' E 122°07'0 0.0
2014-Dec-14 04:15N 29°47' E 122°07'0 0.0
2014-Dec-14 03:33N 29°47' E 122°07'0 0.0
2014-Dec-14 02:09N 29°47' E 122°07'0 0.0
2014-Dec-14 01:27N 29°47' E 122°07'0 0.0
2014-Dec-14 00:33N 29°47' E 122°07'0 0.0
2014-Dec-13 23:33N 29°47' E 122°07'0 0.0
2014-Dec-13 22:15N 29°47' E 122°07'0 0.0
2014-Dec-13 21:27N 29°47' E 122°07'0 0.0
2014-Dec-13 20:21N 29°47' E 122°07'0 0.0
2014-Dec-13 19:33N 29°47' E 122°07'0 0.0
2014-Dec-13 17:27N 29°47' E 122°07'0 0.0
2014-Dec-13 16:09N 29°47' E 122°07'0 0.0
2014-Dec-13 14:33N 29°47' E 122°07'0 0.0
2014-Dec-13 11:27N 29°47' E 122°07'0 0.0
2014-Dec-13 10:27N 29°47' E 122°07'0 0.0
2014-Dec-13 09:27N 29°47' E 122°07'0 0.0
2014-Dec-13 07:27N 29°47' E 122°07'0 0.0
2014-Dec-13 06:33N 29°47' E 122°07'0 0.0
2014-Dec-13 05:33N 29°47' E 122°07'0 0.0
2014-Dec-13 03:33N 29°47' E 122°07'0 0.0
2014-Dec-13 00:21N 29°47' E 122°07'0 0.0
2014-Dec-12 23:27N 29°47' E 122°07'0 0.0
2014-Dec-12 22:09N 29°47' E 122°07'0 0.0
2014-Dec-12 21:21N 29°47' E 122°07'0 0.0
2014-Dec-12 20:33N 29°47' E 122°07'0 0.0
2014-Dec-12 19:15N 29°47' E 122°07'0 0.0
2014-Dec-12 18:27N 29°47' E 122°07'0 0.0
2014-Dec-12 16:21N 29°47' E 122°07'0 0.0
2014-Dec-12 15:21N 29°47' E 122°07'0 0.0
2014-Dec-12 14:27N 29°47' E 122°07'0 0.0
2014-Dec-12 13:21N 29°47' E 122°07'0 0.0
2014-Dec-12 12:09N 29°47' E 122°07'0 0.0
2014-Dec-12 10:09N 29°47' E 122°07'0 0.0
2014-Dec-12 09:09N 29°47' E 122°07'0 0.0
2014-Dec-12 07:15N 29°47' E 122°07'0 0.0
2014-Dec-12 06:09N 29°47' E 122°07'0 0.0
2014-Dec-12 04:21N 29°47' E 122°07'0 0.0
2014-Dec-12 03:33N 29°47' E 122°07'  
Track history (hours):
 
Tides and Currents Weather Stations Pressure Air Temp Water Temp Dewpoint Dewpoint Depression Visibility Wind Speed Wind Dir Waves Ship Positions

MSC Maria Saveria

Last reported at 2014-Dec-22 02:22 UTC. Time now 2014-Dec-22 02:46 UTC.
Position N 29°46' E 122°24'.

Length 366 m; draft 9.3 m.

Type: Ship (hazmat cat A). MMSI: 372400000.

Date/timePositionNaut miles runAvg speedWind from/ knotsBaromVisibWave heightAir tempDewpointWater temp
2014-Dec-22 02:22N 29°46' E 122°24'0 0.0
2014-Dec-22 01:28N 29°46' E 122°24'0 0.0
2014-Dec-22 00:28N 29°46' E 122°24'0 0.1
2014-Dec-21 21:22N 29°46' E 122°24'0 0.0
2014-Dec-21 19:16N 29°46' E 122°24'0 0.0
2014-Dec-21 18:10N 29°46' E 122°24'0 0.0
2014-Dec-21 17:22N 29°46' E 122°24'0 0.0
2014-Dec-21 11:28N 29°46' E 122°24'0 0.1
2014-Dec-21 10:28N 29°46' E 122°24'0 0.0
2014-Dec-21 05:22N 29°46' E 122°24'0 0.0
2014-Dec-21 02:22N 29°46' E 122°24'0 0.1
2014-Dec-21 01:28N 29°46' E 122°24'0 0.1
2014-Dec-20 23:22N 29°46' E 122°24'0 0.0
2014-Dec-20 21:16N 29°46' E 122°24'0 0.1
2014-Dec-20 20:10N 29°46' E 122°24'0 0.0
2014-Dec-20 17:16N 29°46' E 122°24'0 0.0
2014-Dec-20 12:04N 29°46' E 122°24'0 0.0
2014-Dec-20 06:03N 29°46' E 122°24'0 0.0
2014-Dec-20 05:16N 29°46' E 122°24'0 0.0
2014-Dec-20 03:33N 29°46' E 122°24'0 0.0
2014-Dec-20 02:10N 29°46' E 122°24'0 0.0
2014-Dec-19 18:34N 29°46' E 122°24'0 0.0
2014-Dec-19 17:28N 29°46' E 122°24'0 0.1
2014-Dec-19 16:22N 29°46' E 122°24'0 0.0
2014-Dec-19 15:10N 29°46' E 122°24'0 0.0
2014-Dec-19 11:21N 29°46' E 122°24'0 0.0
2014-Dec-19 05:22N 29°46' E 122°24'0 0.1
2014-Dec-19 04:33N 29°46' E 122°24'0 0.0
2014-Dec-18 21:27N 29°46' E 122°24'0 0.1
2014-Dec-18 19:15N 29°46' E 122°24'0 0.0
2014-Dec-18 18:21N 29°46' E 122°24'0 0.0
2014-Dec-18 14:15N 29°46' E 122°24'0 0.1
2014-Dec-18 11:33N 29°46' E 122°24'4 3.6
2014-Dec-18 10:33N 29°45' E 122°20'9 8.5
2014-Dec-18 09:33N 29°51' E 122°12'5 1.4
2014-Dec-18 06:03N 29°49' E 122°07'0 0.1
2014-Dec-18 05:09N 29°49' E 122°07'0 0.0
2014-Dec-18 01:21N 29°49' E 122°07'0 0.1
2014-Dec-18 00:33N 29°49' E 122°07'0 0.1
2014-Dec-17 21:33N 29°49' E 122°07'0 0.0
2014-Dec-17 20:21N 29°49' E 122°07'0 0.0
2014-Dec-17 18:03N 29°49' E 122°07'0 0.0
2014-Dec-17 17:27N 29°49' E 122°07'0 0.0
2014-Dec-17 16:15N 29°49' E 122°07'0 0.0
2014-Dec-17 12:03N 29°49' E 122°07'0 0.0
2014-Dec-17 06:33N 29°49' E 122°07'0 0.0
2014-Dec-17 04:15N 29°49' E 122°07'0 0.0
2014-Dec-17 02:27N 29°49' E 122°07'0 0.2
2014-Dec-17 01:18N 29°49' E 122°07'2 2.0
2014-Dec-17 00:33N 29°47' E 122°07'0 0.1
2014-Dec-16 23:33N 29°47' E 122°07'0 0.0
2014-Dec-16 22:09N 29°47' E 122°07'0 0.0
2014-Dec-16 21:33N 29°47' E 122°07'0 0.0
2014-Dec-16 20:21N 29°47' E 122°07'0 0.0
2014-Dec-16 19:33N 29°47' E 122°07'0 0.0
2014-Dec-16 18:33N 29°47' E 122°07'0 0.0
2014-Dec-16 17:27N 29°47' E 122°07'0 0.0
2014-Dec-16 15:21N 29°47' E 122°07'0 0.0
2014-Dec-16 14:03N 29°47' E 122°07'0 0.0
2014-Dec-16 13:21N 29°47' E 122°07'0 0.0
2014-Dec-16 10:09N 29°47' E 122°07'0 0.0
2014-Dec-16 09:33N 29°47' E 122°07'0 0.0
2014-Dec-16 08:33N 29°47' E 122°07'0 0.0
2014-Dec-16 07:33N 29°47' E 122°07'0 0.0
2014-Dec-16 06:27N 29°47' E 122°07'0 0.0
2014-Dec-16 01:03N 29°47' E 122°07'0 0.0
2014-Dec-15 23:09N 29°47' E 122°07'0 0.0
2014-Dec-15 22:03N 29°47' E 122°07'0 0.0
2014-Dec-15 20:33N 29°47' E 122°07'0 0.0
2014-Dec-15 19:09N 29°47' E 122°07'0 0.0
2014-Dec-15 18:15N 29°47' E 122°07'0 0.0
2014-Dec-15 16:33N 29°47' E 122°07'0 0.0
2014-Dec-15 15:09N 29°47' E 122°07'0 0.0
2014-Dec-15 12:15N 29°47' E 122°07'0 0.0
2014-Dec-15 09:09N 29°47' E 122°07'0 0.0
2014-Dec-15 08:09N 29°47' E 122°07'0 0.0
2014-Dec-15 06:03N 29°47' E 122°07'0 0.0
2014-Dec-15 05:03N 29°47' E 122°07'0 0.0
2014-Dec-15 04:33N 29°47' E 122°07'0 0.0
2014-Dec-15 02:21N 29°47' E 122°07'0 0.0
2014-Dec-15 01:33N 29°47' E 122°07'0 0.0
2014-Dec-14 23:09N 29°47' E 122°07'0 0.0
2014-Dec-14 22:15N 29°47' E 122°07'0 0.0
2014-Dec-14 21:33N 29°47' E 122°07'0 0.0
2014-Dec-14 19:27N 29°47' E 122°07'0 0.0
2014-Dec-14 18:21N 29°47' E 122°07'0 0.0
2014-Dec-14 17:15N 29°47' E 122°07'0 0.0
2014-Dec-14 16:33N 29°47' E 122°07'0 0.0
2014-Dec-14 15:33N 29°47' E 122°07'0 0.0
2014-Dec-14 13:21N 29°47' E 122°07'0 0.0
2014-Dec-14 12:27N 29°47' E 122°07'0 0.0
2014-Dec-14 11:09N 29°47' E 122°07'0 0.0
2014-Dec-14 10:21N 29°47' E 122°07'0 0.0
2014-Dec-14 09:21N 29°47' E 122°07'0 0.0
2014-Dec-14 05:33N 29°47' E 122°07'0 0.0
2014-Dec-14 04:15N 29°47' E 122°07'0 0.0
2014-Dec-14 03:33N 29°47' E 122°07'0 0.0
2014-Dec-14 02:09N 29°47' E 122°07'0 0.0
2014-Dec-14 01:27N 29°47' E 122°07'0 0.0
2014-Dec-14 00:33N 29°47' E 122°07'0 0.0
2014-Dec-13 23:33N 29°47' E 122°07'0 0.0
2014-Dec-13 22:15N 29°47' E 122°07'0 0.0
2014-Dec-13 21:27N 29°47' E 122°07'0 0.0
2014-Dec-13 20:21N 29°47' E 122°07'0 0.0
2014-Dec-13 19:33N 29°47' E 122°07'0 0.0
2014-Dec-13 17:27N 29°47' E 122°07'0 0.0
2014-Dec-13 16:09N 29°47' E 122°07'0 0.0
2014-Dec-13 14:33N 29°47' E 122°07'0 0.0
2014-Dec-13 11:27N 29°47' E 122°07'0 0.0
2014-Dec-13 10:27N 29°47' E 122°07'0 0.0
2014-Dec-13 09:27N 29°47' E 122°07'0 0.0
2014-Dec-13 07:27N 29°47' E 122°07'0 0.0
2014-Dec-13 06:33N 29°47' E 122°07'0 0.0
2014-Dec-13 05:33N 29°47' E 122°07'0 0.0
2014-Dec-13 03:33N 29°47' E 122°07'0 0.0
2014-Dec-13 00:21N 29°47' E 122°07'0 0.0
2014-Dec-12 23:27N 29°47' E 122°07'0 0.0
2014-Dec-12 22:09N 29°47' E 122°07'0 0.0
2014-Dec-12 21:21N 29°47' E 122°07'0 0.0
2014-Dec-12 20:33N 29°47' E 122°07'0 0.0
2014-Dec-12 19:15N 29°47' E 122°07'0 0.0
2014-Dec-12 18:27N 29°47' E 122°07'0 0.0
2014-Dec-12 16:21N 29°47' E 122°07'0 0.0
2014-Dec-12 15:21N 29°47' E 122°07'0 0.0
2014-Dec-12 14:27N 29°47' E 122°07'0 0.0
2014-Dec-12 13:21N 29°47' E 122°07'0 0.0
2014-Dec-12 12:09N 29°47' E 122°07'0 0.0
2014-Dec-12 10:09N 29°47' E 122°07'0 0.0
2014-Dec-12 09:09N 29°47' E 122°07'0 0.0
2014-Dec-12 07:15N 29°47' E 122°07'0 0.0
2014-Dec-12 06:09N 29°47' E 122°07'0 0.0
2014-Dec-12 04:21N 29°47' E 122°07'0 0.0
2014-Dec-12 03:33N 29°47' E 122°07'  

Dump ship's entire track history